createdAt,value
2019-02-18T00:02:14.121Z,39.20
2019-02-18T00:04:44.705Z,39.60
2019-02-18T00:07:15.043Z,41.23
2019-02-18T00:09:45.499Z,41.53
2019-02-18T00:12:15.952Z,42.97
2019-02-18T00:14:46.244Z,42.63
2019-02-18T00:17:16.635Z,40.70
2019-02-18T00:19:46.976Z,42.63
2019-02-18T00:22:17.319Z,41.00
2019-02-18T00:24:47.625Z,41.30
2019-02-18T00:27:17.937Z,41.03
2019-02-18T00:29:48.215Z,41.87
2019-02-18T00:32:18.710Z,44.60
2019-02-18T00:34:49.130Z,43.97
2019-02-18T00:37:24.475Z,41.27
2019-02-18T00:39:52.103Z,38.27
2019-02-18T00:42:23.062Z,43.47
2019-02-18T00:44:55.148Z,44.90
2019-02-18T00:47:25.758Z,43.73
2019-02-18T00:50:00.474Z,46.37
2019-02-18T00:52:31.122Z,48.60
2019-02-18T00:55:01.476Z,51.30
2019-02-18T00:57:32.041Z,38.37
2019-02-18T01:00:02.346Z,42.10
2019-02-18T01:02:32.743Z,41.53
2019-02-18T01:05:03.449Z,46.27
2019-02-18T01:07:35.126Z,43.47
2019-02-18T01:10:07.099Z,41.13
2019-02-18T01:12:37.478Z,42.23
2019-02-18T01:15:09.876Z,40.00
2019-02-18T01:17:44.980Z,40.90
2019-02-18T01:20:15.472Z,44.93
2019-02-18T01:22:45.954Z,40.03
2019-02-18T01:25:16.312Z,38.87
2019-02-18T01:27:46.720Z,45.93
2019-02-18T01:30:17.127Z,41.03
2019-02-18T01:32:49.617Z,50.07
2019-02-18T01:35:20.070Z,44.37
2019-02-18T01:37:50.504Z,47.23
2019-02-18T01:40:20.924Z,45.83
2019-02-18T01:42:51.644Z,49.10
2019-02-18T01:45:22.079Z,44.60
2019-02-18T01:47:52.743Z,47.13
2019-02-18T01:50:23.416Z,47.13
2019-02-18T01:52:54.134Z,47.03
2019-02-18T01:55:24.776Z,51.23
2019-02-18T01:57:55.153Z,44.57
2019-02-18T02:00:25.480Z,49.17
2019-02-18T02:02:55.775Z,47.23
2019-02-18T02:05:26.074Z,45.63
2019-02-18T02:07:56.855Z,43.27
2019-02-18T02:10:27.624Z,45.53
2019-02-18T02:13:29.258Z,44.07
2019-02-18T02:16:00.896Z,43.10
2019-02-18T02:18:32.507Z,41.70
2019-02-18T02:21:02.861Z,50.10
2019-02-18T02:23:33.159Z,47.97
2019-02-18T02:26:03.505Z,47.80
2019-02-18T02:28:33.827Z,52.93
2019-02-18T02:31:04.385Z,49.40
2019-02-18T02:33:34.712Z,51.17
2019-02-18T02:36:05.016Z,46.23
2019-02-18T02:38:35.362Z,49.67
2019-02-18T02:41:05.693Z,47.90
2019-02-18T02:43:35.991Z,48.27
2019-02-18T02:46:06.292Z,45.63
2019-02-18T02:48:36.640Z,47.97
2019-02-18T02:51:06.984Z,49.57
2019-02-18T02:53:37.296Z,46.73
2019-02-18T02:56:08.730Z,42.87
2019-02-18T02:58:39.256Z,44.43
2019-02-18T03:01:09.601Z,47.57
2019-02-18T03:03:40.047Z,44.73
2019-02-18T03:06:10.536Z,42.00
2019-02-18T03:08:40.885Z,49.00
2019-02-18T03:11:11.753Z,42.80
2019-02-18T03:13:42.124Z,47.97
2019-02-18T03:16:12.452Z,47.10
2019-02-18T03:18:42.824Z,47.43
2019-02-18T03:21:13.215Z,43.17
2019-02-18T03:23:43.551Z,48.10
2019-02-18T03:26:13.936Z,48.37
2019-02-18T03:29:12.409Z,41.90
2019-02-18T03:31:42.922Z,44.63
2019-02-18T03:34:20.417Z,37.37
2019-02-18T03:36:51.380Z,42.27
2019-02-18T03:39:21.728Z,48.03
2019-02-18T03:41:52.056Z,48.67
2019-02-18T03:44:22.605Z,44.20
2019-02-18T03:46:52.979Z,43.07
2019-02-18T03:49:23.328Z,41.90
2019-02-18T03:51:53.741Z,48.57
2019-02-18T03:54:24.328Z,42.53
2019-02-18T03:56:54.834Z,42.57
2019-02-18T03:59:25.446Z,45.40
2019-02-18T04:01:55.903Z,42.30
2019-02-18T04:04:26.334Z,49.93
2019-02-18T04:06:56.680Z,47.10
2019-02-18T04:09:27.044Z,47.70
2019-02-18T04:11:57.412Z,42.83
2019-02-18T04:14:27.916Z,42.63
2019-02-18T04:16:58.207Z,47.03
2019-02-18T04:19:28.509Z,43.83
2019-02-18T04:21:59.082Z,44.97
2019-02-18T04:24:29.445Z,44.80
2019-02-18T04:26:59.788Z,46.33
2019-02-18T04:29:30.174Z,47.87
2019-02-18T04:32:00.816Z,49.47
2019-02-18T04:34:31.344Z,48.43
2019-02-18T04:37:01.687Z,50.93
2019-02-18T04:39:32.016Z,47.70
2019-02-18T04:42:02.352Z,48.93
2019-02-18T04:44:32.971Z,53.43
2019-02-18T04:47:03.365Z,52.50
2019-02-18T04:49:33.756Z,50.37
2019-02-18T04:52:04.194Z,55.13
2019-02-18T04:54:34.529Z,50.97
2019-02-18T04:57:05.002Z,53.50
2019-02-18T04:59:35.577Z,46.53
2019-02-18T05:02:05.931Z,45.50
2019-02-18T05:04:36.605Z,49.00
2019-02-18T05:07:07.016Z,45.67
2019-02-18T05:09:39.855Z,41.30
2019-02-18T05:12:09.499Z,49.00
2019-02-18T05:14:40.448Z,45.50
2019-02-18T05:17:10.824Z,40.17
2019-02-18T05:19:41.161Z,48.27
2019-02-18T05:22:11.555Z,40.40
2019-02-18T05:24:42.020Z,49.83
2019-02-18T05:27:12.374Z,42.47
2019-02-18T05:29:42.829Z,47.90
2019-02-18T05:32:13.378Z,43.17
2019-02-18T05:34:43.817Z,41.83
2019-02-18T05:37:14.183Z,40.17
2019-02-18T05:39:44.953Z,41.57
2019-02-18T05:42:15.422Z,41.27
2019-02-18T05:44:46.132Z,43.03
2019-02-18T05:47:16.740Z,39.77
2019-02-18T05:49:47.059Z,49.00
2019-02-18T05:52:17.534Z,46.57
2019-02-18T05:54:48.049Z,48.67
2019-02-18T05:57:18.516Z,53.53
2019-02-18T05:59:48.986Z,61.43
2019-02-18T06:02:20.980Z,54.43
2019-02-18T06:04:51.467Z,55.63
2019-02-18T06:07:21.834Z,62.43
2019-02-18T06:09:53.383Z,64.30
2019-02-18T06:12:23.894Z,52.73
2019-02-18T06:14:54.458Z,59.60
2019-02-18T06:17:24.886Z,56.17
2019-02-18T06:19:55.362Z,54.30
2019-02-18T06:22:26.910Z,56.67
2019-02-18T06:24:57.326Z,50.73
2019-02-18T06:27:28.536Z,54.03
2019-02-18T06:30:02.079Z,58.70
2019-02-18T06:32:33.601Z,50.57
2019-02-18T06:35:04.306Z,46.90
2019-02-18T06:37:43.299Z,45.73
2019-02-18T06:40:17.075Z,48.87
2019-02-18T06:42:47.756Z,50.03
2019-02-18T06:45:39.260Z,60.57
2019-02-18T06:48:33.707Z,48.53
2019-02-18T06:51:04.369Z,57.17
2019-02-18T06:53:35.032Z,49.47
2019-02-18T06:56:08.220Z,51.70
2019-02-18T06:58:51.237Z,52.10
2019-02-18T07:01:32.874Z,58.30
2019-02-18T07:04:31.373Z,52.43
2019-02-18T07:07:10.576Z,60.60
2019-02-18T07:10:18.737Z,57.03
2019-02-18T07:12:51.639Z,47.50
2019-02-18T07:15:22.057Z,50.10
2019-02-18T07:17:52.500Z,45.77
2019-02-18T07:20:22.899Z,50.77
2019-02-18T07:22:53.472Z,48.47
2019-02-18T07:25:23.801Z,51.73
2019-02-18T07:27:54.194Z,50.50
2019-02-18T07:30:24.533Z,55.73
2019-02-18T07:32:54.950Z,54.67
2019-02-18T07:35:25.377Z,51.77
2019-02-18T07:37:55.858Z,54.47
2019-02-18T07:40:26.350Z,57.00
2019-02-18T07:42:56.887Z,53.20
2019-02-18T07:45:27.351Z,54.00
2019-02-18T07:47:57.741Z,53.93
2019-02-18T07:50:28.273Z,50.80
2019-02-18T07:52:58.678Z,47.83
2019-02-18T07:55:29.061Z,43.57
2019-02-18T07:57:59.396Z,49.10
2019-02-18T08:00:29.810Z,46.70
2019-02-18T08:06:36.046Z,40.80
2019-02-18T08:15:52.779Z,42.03
2019-02-18T08:18:26.949Z,36.50
2019-02-18T08:20:58.321Z,39.80
2019-02-18T08:23:29.189Z,36.20
2019-02-18T08:26:00.462Z,38.33
2019-02-18T08:28:38.568Z,38.47
2019-02-18T08:31:38.503Z,38.73
2019-02-18T08:35:11.278Z,38.77
2019-02-18T08:41:05.641Z,40.93
2019-02-18T08:43:41.722Z,42.37
2019-02-18T08:46:16.064Z,41.23
2019-02-18T08:48:51.153Z,36.10
2019-02-18T08:51:27.128Z,40.93
2019-02-18T08:57:00.644Z,40.20
2019-02-18T08:59:32.102Z,50.50
2019-02-18T09:02:07.423Z,59.23
2019-02-18T09:04:38.273Z,56.43
2019-02-18T09:07:09.371Z,38.07
2019-02-18T09:09:43.366Z,44.55
2019-02-18T09:12:14.938Z,44.75
2019-02-18T09:14:45.851Z,33.20
2019-02-18T09:18:25.038Z,35.45
2019-02-18T09:38:58.722Z,43.25
2019-02-18T09:41:29.177Z,36.35
2019-02-18T09:43:59.652Z,36.75
2019-02-18T09:46:30.762Z,38.85
2019-02-18T09:49:02.014Z,33.15
2019-02-18T09:51:32.535Z,33.45
2019-02-18T09:54:03.256Z,40.90
2019-02-18T10:00:20.827Z,37.17
2019-02-18T10:41:42.688Z,32.53
2019-02-18T10:44:29.017Z,31.57
2019-02-18T10:47:05.635Z,39.75
2019-02-18T10:49:40.734Z,37.83
2019-02-18T10:52:22.535Z,34.55
2019-02-18T10:54:52.442Z,33.00
2019-02-18T11:01:01.378Z,24.92
2019-02-18T11:03:32.956Z,23.47
2019-02-18T11:06:03.741Z,24.40
2019-02-18T11:16:57.087Z,25.88
2019-02-18T11:19:27.550Z,27.50
2019-02-18T11:22:16.791Z,23.42
2019-02-18T11:24:47.492Z,25.25
2019-02-18T11:27:31.011Z,29.80
2019-02-18T11:45:47.372Z,29.57
2019-02-18T11:59:42.672Z,26.75
2019-02-18T12:03:13.237Z,28.32
2019-02-18T12:06:28.015Z,30.10
2019-02-18T12:09:25.105Z,38.42
2019-02-18T12:12:15.889Z,28.92
2019-02-18T12:18:10.073Z,27.98
2019-02-18T12:20:52.761Z,29.95
2019-02-18T12:23:32.833Z,29.05
2019-02-18T12:26:19.400Z,34.75
2019-02-18T12:28:50.050Z,35.52
2019-02-18T12:31:21.636Z,34.05
2019-02-18T12:33:53.747Z,34.18
2019-02-18T12:36:25.134Z,43.85
2019-02-18T12:39:14.286Z,32.20
2019-02-18T12:41:52.833Z,39.70
2019-02-18T12:44:30.809Z,34.43
2019-02-18T12:47:08.517Z,32.65
2019-02-18T12:49:45.980Z,37.58
2019-02-18T12:52:15.298Z,32.88
2019-02-18T12:54:52.404Z,35.20
2019-02-18T12:58:02.763Z,36.55
2019-02-18T13:00:50.712Z,37.75
2019-02-18T13:03:27.637Z,37.65
2019-02-18T13:06:06.016Z,35.95
2019-02-18T13:09:11.893Z,35.40
2019-02-18T13:11:46.140Z,38.48
2019-02-18T13:14:35.136Z,32.05
2019-02-18T13:17:10.376Z,33.85
2019-02-18T13:19:44.726Z,42.95
2019-02-18T13:22:15.743Z,38.05
2019-02-18T13:24:46.925Z,38.33
2019-02-18T13:27:17.727Z,34.40
2019-02-18T13:29:50.249Z,36.20
2019-02-18T13:32:20.896Z,36.70
2019-02-18T13:34:52.224Z,33.90
2019-02-18T13:37:23.328Z,36.35
2019-02-18T13:39:59.885Z,37.85
2019-02-18T13:42:30.743Z,36.20
2019-02-18T13:45:02.550Z,38.73
2019-02-18T13:47:33.364Z,36.55
2019-02-18T13:50:04.691Z,34.95
2019-02-18T13:52:36.250Z,34.20
2019-02-18T13:55:08.134Z,39.92
2019-02-18T13:57:44.490Z,34.63
2019-02-18T14:00:21.434Z,49.20
2019-02-18T14:02:54.087Z,34.35
2019-02-18T14:05:25.050Z,40.95
2019-02-18T14:07:56.352Z,40.23
2019-02-18T14:10:46.733Z,42.38
2019-02-18T14:13:18.061Z,35.33
2019-02-18T14:15:49.033Z,34.80
2019-02-18T14:18:20.669Z,33.63
2019-02-18T14:20:53.497Z,43.35
2019-02-18T14:23:24.794Z,43.25
2019-02-18T14:25:56.742Z,38.30
2019-02-18T14:28:27.924Z,43.73
2019-02-18T14:31:02.273Z,54.10
2019-02-18T14:33:33.248Z,36.03
2019-02-18T14:36:04.333Z,36.68
2019-02-18T14:38:35.744Z,53.08
2019-02-18T14:41:06.663Z,36.63
2019-02-18T14:43:37.899Z,35.50
2019-02-18T14:46:08.758Z,48.02
2019-02-18T14:48:40.183Z,58.28
2019-02-18T14:51:15.647Z,43.50
2019-02-18T14:53:46.885Z,31.75
2019-02-18T14:56:18.438Z,38.08
2019-02-18T14:58:55.510Z,36.10
2019-02-18T15:01:29.841Z,37.05
2019-02-18T15:04:00.858Z,33.95
2019-02-18T15:06:34.672Z,32.85
2019-02-18T15:09:15.070Z,37.70
2019-02-18T15:11:50.634Z,43.15
2019-02-18T15:14:25.725Z,39.87
2019-02-18T15:16:57.505Z,40.33
2019-02-18T15:19:28.639Z,31.65
2019-02-18T15:22:00.958Z,35.63
2019-02-18T15:24:54.049Z,30.88
2019-02-18T15:27:37.929Z,37.17
2019-02-18T15:30:15.257Z,37.00
2019-02-18T15:32:51.342Z,32.20
2019-02-18T15:35:28.148Z,28.33
2019-02-18T15:38:11.253Z,37.30
2019-02-18T15:41:10.414Z,33.47
2019-02-18T15:43:45.682Z,38.40
2019-02-18T15:46:21.056Z,42.73
2019-02-18T15:49:13.529Z,43.30
2019-02-18T15:51:44.497Z,48.33
2019-02-18T15:58:45.685Z,48.70
2019-02-18T16:01:19.292Z,51.90
2019-02-18T16:04:48.848Z,51.83
2019-02-18T16:07:40.699Z,42.27
2019-02-18T16:10:35.886Z,59.83
2019-02-18T16:13:19.824Z,59.37
2019-02-18T16:16:03.550Z,45.80
2019-02-18T16:27:32.116Z,46.33
2019-02-18T16:30:50.944Z,45.17
2019-02-18T16:33:43.879Z,56.13
2019-02-18T16:36:41.141Z,65.57
2019-02-18T17:06:32.769Z,79.90
2019-02-18T17:09:05.409Z,74.03
2019-02-18T17:11:36.003Z,62.63
2019-02-18T17:14:06.307Z,57.67
2019-02-18T17:16:36.726Z,62.50
2019-02-18T17:19:07.315Z,45.47
2019-02-18T17:21:38.002Z,58.17
2019-02-18T17:24:08.452Z,45.47
2019-02-18T17:26:39.173Z,42.83
2019-02-18T17:29:09.903Z,49.17
2019-02-18T17:31:40.286Z,44.90
2019-02-18T17:34:10.649Z,52.90
2019-02-18T17:36:40.992Z,46.63
2019-02-18T17:39:11.327Z,39.43
2019-02-18T17:41:41.648Z,51.63
2019-02-18T17:44:19.988Z,48.77
2019-02-18T17:46:44.948Z,59.80
2019-02-18T17:49:15.268Z,48.20
2019-02-18T17:51:45.621Z,52.50
2019-02-18T17:54:16.494Z,48.90
2019-02-18T17:56:46.852Z,54.77
2019-02-18T17:59:17.183Z,45.33
2019-02-18T18:01:47.632Z,49.97
2019-02-18T18:04:18.455Z,43.60
2019-02-18T18:06:49.094Z,41.87
2019-02-18T18:09:19.656Z,60.83
2019-02-18T18:11:49.934Z,49.43
2019-02-18T18:14:20.172Z,47.77
2019-02-18T18:16:50.703Z,49.27
2019-02-18T18:19:21.356Z,46.23
2019-02-18T18:21:52.149Z,43.53
2019-02-18T18:24:22.805Z,34.87
2019-02-18T18:26:53.176Z,46.30
2019-02-18T18:29:23.577Z,41.27
2019-02-18T18:31:53.954Z,42.47
2019-02-18T18:34:24.952Z,42.47
2019-02-18T18:36:55.190Z,42.17
2019-02-18T18:39:25.566Z,36.20
2019-02-18T18:41:56.379Z,35.57
2019-02-18T18:44:26.822Z,38.17
2019-02-18T18:46:57.213Z,40.67
2019-02-18T18:49:27.566Z,41.23
2019-02-18T18:51:57.871Z,44.47
2019-02-18T18:54:28.205Z,42.40
2019-02-18T18:56:58.654Z,39.67
2019-02-18T18:59:29.047Z,44.17
2019-02-18T19:01:59.543Z,38.37
2019-02-18T19:04:29.997Z,44.23
2019-02-18T19:07:00.299Z,45.90
2019-02-18T19:09:30.792Z,37.67
2019-02-18T19:12:01.611Z,40.90
2019-02-18T19:14:32.433Z,37.40
2019-02-18T19:17:03.054Z,38.90
2019-02-18T19:19:33.700Z,42.00
2019-02-18T19:22:04.095Z,42.07
2019-02-18T19:24:34.675Z,42.13
2019-02-18T19:27:05.523Z,41.93
2019-02-18T19:29:35.897Z,44.77
2019-02-18T19:32:06.286Z,44.70
2019-02-18T19:34:36.583Z,46.00
2019-02-18T19:37:07.044Z,44.90
2019-02-18T19:39:37.330Z,50.00
2019-02-18T19:42:07.759Z,56.90
2019-02-18T19:44:39.371Z,63.50
2019-02-18T19:47:09.836Z,64.20
2019-02-18T19:49:40.251Z,56.40
2019-02-18T19:52:10.972Z,55.03
2019-02-18T19:54:41.397Z,51.43
2019-02-18T19:57:13.913Z,49.80
2019-02-18T19:59:44.370Z,57.23
2019-02-18T20:02:15.858Z,47.57
2019-02-18T20:04:46.354Z,46.27
2019-02-18T20:07:17.012Z,47.07
2019-02-18T20:09:47.663Z,49.80
2019-02-18T20:12:18.080Z,56.50
2019-02-18T20:14:48.601Z,54.30
2019-02-18T20:17:19.153Z,50.37
2019-02-18T20:19:49.958Z,52.17
2019-02-18T20:22:20.447Z,55.80
2019-02-18T20:24:50.964Z,57.90
2019-02-18T20:27:22.651Z,52.40
2019-02-18T20:29:54.685Z,61.67
2019-02-18T20:32:26.501Z,55.10
2019-02-18T20:35:01.038Z,62.00
2019-02-18T20:37:31.705Z,55.27
2019-02-18T20:40:02.105Z,47.00
2019-02-18T20:42:32.651Z,51.13
2019-02-18T20:45:03.364Z,55.40
2019-02-18T20:47:33.923Z,54.27
2019-02-18T20:50:04.475Z,51.43
2019-02-18T20:52:34.875Z,42.07
2019-02-18T20:55:06.423Z,49.80
2019-02-18T20:57:37.440Z,49.77
2019-02-18T21:00:18.751Z,47.60
2019-02-18T21:02:49.216Z,47.50
2019-02-18T21:05:19.784Z,52.47
2019-02-18T21:07:50.267Z,54.90
2019-02-18T21:10:20.804Z,55.77
2019-02-18T21:12:52.208Z,57.07
2019-02-18T21:15:22.596Z,58.87
2019-02-18T21:17:53.188Z,58.20
2019-02-18T21:20:23.763Z,58.83
2019-02-18T21:22:54.244Z,59.00
2019-02-18T21:25:24.622Z,59.17
2019-02-18T21:27:54.968Z,53.53
2019-02-18T21:30:25.319Z,60.20
2019-02-18T21:32:55.727Z,57.30
2019-02-18T21:35:26.727Z,57.70
2019-02-18T21:37:57.104Z,46.60
2019-02-18T21:40:28.190Z,56.87
2019-02-18T21:42:58.836Z,53.87
2019-02-18T21:45:29.336Z,54.30
2019-02-18T21:47:59.727Z,56.87
2019-02-18T21:50:30.048Z,57.67
2019-02-18T21:53:00.607Z,48.90
2019-02-18T21:55:31.068Z,55.30
2019-02-18T21:58:01.481Z,54.20
2019-02-18T22:00:31.934Z,51.03
2019-02-18T22:03:02.692Z,48.90
2019-02-18T22:05:33.083Z,46.40
2019-02-18T22:08:03.483Z,50.37
2019-02-18T22:10:33.894Z,51.00
2019-02-18T22:13:04.271Z,51.43
2019-02-18T22:15:34.659Z,49.10
2019-02-18T22:18:04.982Z,51.17
2019-02-18T22:20:35.318Z,49.60
2019-02-18T22:23:05.723Z,48.27
2019-02-18T22:25:36.054Z,52.27
2019-02-18T22:28:22.805Z,47.80
2019-02-18T22:30:53.651Z,47.63
2019-02-18T22:33:25.061Z,46.47
2019-02-18T22:35:55.428Z,48.57
2019-02-18T22:38:25.793Z,45.93
2019-02-18T22:40:56.241Z,46.13
2019-02-18T22:43:26.651Z,46.07
2019-02-18T22:45:56.954Z,44.10
2019-02-18T22:48:27.447Z,46.47
2019-02-18T22:50:57.853Z,40.10
2019-02-18T22:53:28.896Z,42.33
2019-02-18T22:56:01.059Z,46.60
2019-02-18T22:58:31.408Z,48.63
2019-02-18T23:01:02.973Z,46.50
2019-02-18T23:03:34.332Z,43.90
2019-02-18T23:06:04.768Z,42.37
2019-02-18T23:08:35.277Z,44.37
2019-02-18T23:11:06.860Z,42.40
2019-02-18T23:13:38.813Z,40.73
2019-02-18T23:16:09.708Z,46.93
2019-02-18T23:18:40.166Z,40.83
2019-02-18T23:21:10.602Z,44.33
2019-02-18T23:23:41.358Z,37.13
2019-02-18T23:26:11.979Z,37.03
2019-02-18T23:28:42.364Z,39.50
2019-02-18T23:31:12.791Z,41.07
2019-02-18T23:33:43.226Z,37.20
2019-02-18T23:36:13.645Z,37.53
2019-02-18T23:38:44.054Z,36.20
2019-02-18T23:41:14.350Z,39.90
2019-02-18T23:43:44.680Z,41.83
2019-02-18T23:46:15.156Z,38.53
2019-02-18T23:48:45.831Z,38.43
2019-02-18T23:51:16.232Z,37.37
2019-02-18T23:53:46.739Z,40.17
2019-02-18T23:56:17.217Z,36.83
2019-02-18T23:58:47.883Z,38.07
